Time;durP1;ratioP1;P1;durP2;ratioP2;P2;SDS_P1;SDS_P2;PMS_P1;PMS_P2;Temp;Humidity;BMP_temperature;BMP_pressure;BME280_temperature;BME280_humidity;BME280_pressure;Samples;Min_cycle;Max_cycle;Signal;HPM_P1;HPM_P2
2020/12/08 00:01:01;;;;;;;19.25;10.43;;;3.60;99.90;;;;;;5007360;28;20750;-89
2020/12/08 00:03:28;;;;;;;16.30;9.75;;;3.60;99.90;;;;;;5008579;28;20244;-92
2020/12/08 00:05:55;;;;;;;15.35;10.00;;;3.60;99.90;;;;;;5007503;28;20239;-87
2020/12/08 00:08:22;;;;;;;14.80;9.15;;;3.50;99.90;;;;;;5013748;28;20265;-88
2020/12/08 00:10:48;;;;;;;16.45;9.88;;;3.70;99.90;;;;;;5013801;28;20628;-88
2020/12/08 00:13:14;;;;;;;16.48;10.68;;;3.60;99.90;;;;;;5013636;28;20203;-86
2020/12/08 00:15:41;;;;;;;16.42;9.60;;;3.70;99.90;;;;;;5012807;28;20233;-90
2020/12/08 00:18:07;;;;;;;21.33;13.10;;;3.60;99.90;;;;;;5012791;28;20261;-90
2020/12/08 00:20:33;;;;;;;18.70;11.60;;;3.70;99.90;;;;;;5013097;28;20242;-87
2020/12/08 00:23:01;;;;;;;19.75;11.45;;;3.70;99.90;;;;;;5013412;28;20286;-89
2020/12/08 00:25:27;;;;;;;20.05;12.35;;;3.70;99.90;;;;;;5014241;28;20227;-90
2020/12/08 00:27:53;;;;;;;19.63;12.02;;;3.70;99.90;;;;;;5013336;28;20294;-88
2020/12/08 00:30:22;;;;;;;22.95;12.48;;;3.70;99.90;;;;;;5013566;28;20207;-89
2020/12/08 00:32:49;;;;;;;22.75;10.85;;;3.70;99.90;;;;;;5012435;28;20211;-87
2020/12/08 00:35:16;;;;;;;19.77;11.65;;;3.80;99.90;;;;;;5013654;28;20576;-88
2020/12/08 00:37:44;;;;;;;19.00;12.43;;;3.80;99.90;;;;;;5025382;28;20215;-86
2020/12/08 00:40:12;;;;;;;22.30;12.48;;;3.80;99.90;;;;;;5036230;28;20265;-86
2020/12/08 00:42:39;;;;;;;17.80;11.10;;;3.80;99.90;;;;;;5036823;28;20192;-89
2020/12/08 00:45:07;;;;;;;19.80;11.95;;;3.90;99.90;;;;;;5032988;28;20212;-90
2020/12/08 00:47:33;;;;;;;21.60;12.25;;;3.90;99.90;;;;;;5015047;28;20207;-87
2020/12/08 00:50:00;;;;;;;17.27;11.70;;;3.90;99.90;;;;;;5006491;28;20291;-89
2020/12/08 00:52:26;;;;;;;20.15;11.82;;;3.90;99.90;;;;;;4996508;28;20372;-91
2020/12/08 00:54:53;;;;;;;18.17;11.25;;;3.90;99.90;;;;;;4993300;28;20206;-84
2020/12/08 00:57:23;;;;;;;20.15;12.57;;;3.80;99.90;;;;;;4993664;28;20291;-87
2020/12/08 00:59:50;;;;;;;21.35;12.07;;;3.80;99.90;;;;;;4993116;28;20323;-88
2020/12/08 01:02:17;;;;;;;18.33;11.32;;;3.80;99.90;;;;;;4993022;28;20235;-89
2020/12/08 01:04:44;;;;;;;18.98;10.57;;;3.70;99.90;;;;;;4993207;28;20300;-87
2020/12/08 01:07:10;;;;;;;16.90;10.95;;;3.70;99.90;;;;;;4993242;28;20287;-86
2020/12/08 01:09:37;;;;;;;18.70;11.10;;;3.70;99.90;;;;;;4993263;28;20208;-87
2020/12/08 01:12:04;;;;;;;21.77;12.80;;;3.80;99.90;;;;;;4993204;28;20400;-88
2020/12/08 01:14:31;;;;;;;17.45;10.68;;;3.80;99.90;;;;;;4993180;28;20213;-86
2020/12/08 01:16:58;;;;;;;18.80;11.27;;;3.80;99.90;;;;;;4992317;28;20626;-86
2020/12/08 01:19:25;;;;;;;19.58;10.68;;;3.80;99.90;;;;;;4998630;28;20242;-87
2020/12/08 01:21:52;;;;;;;13.95;9.20;;;3.70;99.90;;;;;;5012665;28;20209;-86
2020/12/08 01:24:18;;;;;;;12.77;9.00;;;3.60;99.90;;;;;;5012698;28;20200;-87
2020/12/08 01:26:45;;;;;;;18.88;10.90;;;3.50;99.90;;;;;;5012526;28;20203;-87
2020/12/08 01:29:11;;;;;;;17.92;11.40;;;3.40;99.90;;;;;;5012962;28;20210;-86
2020/12/08 01:31:39;;;;;;;20.00;12.15;;;3.40;99.90;;;;;;5014617;28;20298;-88
2020/12/08 01:34:07;;;;;;;17.85;12.45;;;3.40;99.90;;;;;;5016648;28;20291;-87
2020/12/08 01:36:33;;;;;;;18.13;11.10;;;3.30;99.90;;;;;;5016428;28;20204;-87
2020/12/08 01:38:59;;;;;;;19.95;11.55;;;3.30;99.90;;;;;;5029015;28;20318;-85
2020/12/08 01:41:26;;;;;;;14.35;9.75;;;3.30;99.90;;;;;;5038383;28;20250;-88
2020/12/08 01:43:54;;;;;;;18.65;11.05;;;3.30;99.90;;;;;;5038684;28;20231;-85
2020/12/08 01:46:25;;;;;;;20.60;11.35;;;3.40;99.90;;;;;;5016360;28;20229;-85
2020/12/08 01:48:54;;;;;;;18.95;12.05;;;3.40;99.90;;;;;;5016667;28;20215;-86
2020/12/08 01:51:22;;;;;;;17.75;11.13;;;3.40;99.90;;;;;;5016153;28;20267;-86
2020/12/08 01:53:50;;;;;;;18.08;11.30;;;3.40;99.90;;;;;;5016431;28;20542;-85
2020/12/08 01:56:17;;;;;;;17.55;10.60;;;3.40;99.90;;;;;;5015887;28;20214;-86
2020/12/08 01:58:44;;;;;;;22.58;12.77;;;3.30;99.90;;;;;;5015697;28;20330;-86
2020/12/08 02:01:12;;;;;;;20.45;12.55;;;3.20;99.90;;;;;;5014477;28;20210;-86
2020/12/08 02:03:39;;;;;;;19.42;10.20;;;3.20;99.90;;;;;;5014807;28;20205;-86
2020/12/08 02:06:07;;;;;;;19.15;11.95;;;3.10;99.90;;;;;;5015528;28;20298;-87
2020/12/08 02:08:35;;;;;;;18.85;12.15;;;3.10;99.90;;;;;;5015428;28;20209;-86
2020/12/08 02:11:03;;;;;;;22.05;13.02;;;3.10;99.90;;;;;;5015618;28;20631;-88
2020/12/08 02:13:29;;;;;;;17.05;10.50;;;3.10;99.90;;;;;;5015518;28;20246;-86
2020/12/08 02:15:56;;;;;;;22.40;12.00;;;3.20;99.90;;;;;;5014451;28;20322;-86
2020/12/08 02:18:23;;;;;;;20.45;13.13;;;3.10;99.90;;;;;;5015367;28;20675;-86
2020/12/08 02:20:54;;;;;;;22.48;12.13;;;3.00;99.90;;;;;;5015354;28;20239;-86
2020/12/08 02:23:20;;;;;;;23.52;13.63;;;3.00;99.90;;;;;;5015745;28;20739;-87
2020/12/08 02:25:54;;;;;;;23.55;11.88;;;2.90;99.90;;;;;;5015765;28;20291;-85
2020/12/08 02:28:20;;;;;;;16.35;11.77;;;2.90;99.90;;;;;;5015267;28;20238;-86
2020/12/08 02:30:47;;;;;;;22.15;11.32;;;2.70;99.90;;;;;;5014146;28;20243;-85
2020/12/08 02:33:14;;;;;;;19.95;11.90;;;2.70;99.90;;;;;;5014734;28;20290;-85
2020/12/08 02:35:40;;;;;;;24.83;12.90;;;2.70;99.90;;;;;;5014802;28;20242;-86
2020/12/08 02:38:07;;;;;;;22.40;12.45;;;2.60;99.90;;;;;;5015024;28;20250;-86
2020/12/08 02:40:34;;;;;;;20.30;12.02;;;2.50;99.90;;;;;;5015065;28;20263;-86
2020/12/08 02:43:00;;;;;;;21.45;11.88;;;2.50;99.90;;;;;;5013975;28;20208;-86
2020/12/08 02:45:26;;;;;;;19.10;10.90;;;2.40;99.90;;;;;;5015046;28;20303;-87
2020/12/08 02:47:53;;;;;;;22.08;12.90;;;2.40;99.90;;;;;;5013965;28;20617;-87
2020/12/08 02:50:19;;;;;;;16.95;11.10;;;2.30;99.90;;;;;;5014084;28;20642;-86
2020/12/08 02:52:45;;;;;;;20.80;11.82;;;2.30;99.90;;;;;;5016217;28;20254;-86
2020/12/08 02:55:13;;;;;;;19.10;11.18;;;2.30;99.90;;;;;;5016785;28;20250;-87
2020/12/08 02:57:39;;;;;;;22.30;12.40;;;2.20;99.90;;;;;;5021440;28;20210;-86
2020/12/08 03:00:05;;;;;;;21.17;11.77;;;2.10;99.90;;;;;;5038755;28;20244;-85
2020/12/08 03:02:32;;;;;;;21.30;13.52;;;2.10;99.90;;;;;;5038504;28;20203;-85
2020/12/08 03:04:58;;;;;;;19.38;11.57;;;2.10;99.90;;;;;;5038438;28;20191;-86
2020/12/08 03:07:25;;;;;;;25.92;12.75;;;2.10;99.90;;;;;;5021736;28;20243;-86
2020/12/08 03:09:51;;;;;;;18.75;11.93;;;2.10;99.90;;;;;;5016227;28;20299;-86
2020/12/08 03:12:18;;;;;;;24.58;15.18;;;2.20;99.90;;;;;;5014586;28;20235;-86
2020/12/08 03:14:44;;;;;;;23.92;12.63;;;2.20;99.90;;;;;;5014577;28;20290;-85
2020/12/08 03:17:11;;;;;;;24.40;13.00;;;2.20;99.90;;;;;;5013903;28;20642;-85
2020/12/08 03:19:38;;;;;;;25.88;13.20;;;2.20;99.90;;;;;;5014146;28;20310;-88
2020/12/08 03:22:05;;;;;;;21.73;12.88;;;2.30;99.90;;;;;;5014008;28;20298;-87
2020/12/08 03:24:31;;;;;;;21.23;12.02;;;2.30;99.90;;;;;;5025176;28;20223;-87
2020/12/08 03:26:58;;;;;;;26.13;12.95;;;2.30;99.90;;;;;;5039267;28;20207;-87
2020/12/08 03:29:25;;;;;;;27.83;12.68;;;2.30;99.90;;;;;;5032419;28;20214;-87
2020/12/08 03:31:51;;;;;;;28.48;15.23;;;2.40;99.90;;;;;;5014827;28;20238;-86
2020/12/08 03:34:18;;;;;;;19.98;12.93;;;2.40;99.90;;;;;;5014787;28;20539;-86
2020/12/08 03:36:44;;;;;;;25.23;14.00;;;2.40;99.90;;;;;;5002172;28;20719;-86
2020/12/08 03:39:11;;;;;;;21.90;12.10;;;2.40;99.90;;;;;;4994540;28;20335;-86
2020/12/08 03:41:37;;;;;;;24.85;13.23;;;2.40;99.90;;;;;;4993953;28;20200;-87
2020/12/08 03:44:03;;;;;;;21.52;11.82;;;2.30;99.90;;;;;;4994910;28;20247;-88
2020/12/08 03:46:30;;;;;;;22.63;13.13;;;2.30;99.90;;;;;;4993303;28;20295;-86
2020/12/08 03:48:57;;;;;;;26.38;13.60;;;2.20;99.90;;;;;;4994282;28;20204;-86
2020/12/08 03:51:23;;;;;;;19.02;11.32;;;2.10;99.90;;;;;;4994161;28;20638;-88
2020/12/08 03:53:50;;;;;;;25.95;13.63;;;2.00;99.90;;;;;;4993589;28;20254;-87
2020/12/08 03:56:18;;;;;;;22.23;12.85;;;2.00;99.90;;;;;;4994293;28;20204;-87
2020/12/08 03:58:46;;;;;;;21.30;11.40;;;2.00;99.90;;;;;;4993704;28;20774;-85
2020/12/08 04:01:17;;;;;;;23.65;13.02;;;1.90;99.90;;;;;;4992738;28;20295;-86
2020/12/08 04:03:45;;;;;;;19.15;11.88;;;1.90;99.90;;;;;;4994169;28;20223;-86
2020/12/08 04:06:12;;;;;;;23.15;14.25;;;1.90;99.90;;;;;;4994148;28;20222;-86
2020/12/08 04:08:39;;;;;;;23.75;14.95;;;1.90;99.90;;;;;;4993717;28;20576;-86
2020/12/08 04:11:05;;;;;;;25.50;13.85;;;1.90;99.90;;;;;;4998097;28;20246;-87
2020/12/08 04:13:32;;;;;;;26.70;14.25;;;1.90;99.90;;;;;;5013284;28;20261;-88
2020/12/08 04:15:58;;;;;;;18.02;11.07;;;1.90;99.90;;;;;;5012135;28;20741;-87
2020/12/08 04:18:25;;;;;;;27.20;13.93;;;1.90;99.90;;;;;;5013152;28;20299;-87
2020/12/08 04:20:52;;;;;;;20.83;11.07;;;1.90;99.90;;;;;;5013397;28;20299;-87
2020/12/08 04:23:19;;;;;;;27.48;13.40;;;1.90;99.90;;;;;;5013292;28;20698;-87
2020/12/08 04:25:46;;;;;;;21.23;12.07;;;1.90;99.90;;;;;;5013314;28;20633;-86
2020/12/08 04:28:13;;;;;;;24.63;12.70;;;1.90;99.90;;;;;;5013217;28;20253;-87
2020/12/08 04:30:40;;;;;;;26.98;14.90;;;1.80;99.90;;;;;;5012793;28;20294;-86
2020/12/08 04:33:07;;;;;;;21.65;13.43;;;1.80;99.90;;;;;;5012948;28;20227;-87
2020/12/08 04:35:33;;;;;;;25.13;14.00;;;1.70;99.90;;;;;;5013472;28;20258;-89
2020/12/08 04:38:01;;;;;;;32.75;14.75;;;1.80;99.90;;;;;;5013383;28;20231;-89
2020/12/08 04:40:28;;;;;;;26.17;14.20;;;1.80;99.90;;;;;;5013051;28;20617;-87
2020/12/08 04:42:54;;;;;;;22.95;14.50;;;1.80;99.90;;;;;;5013042;28;20294;-86
2020/12/08 04:45:22;;;;;;;30.75;13.43;;;1.80;99.90;;;;;;5013122;28;20261;-86
2020/12/08 04:47:49;;;;;;;26.27;14.10;;;1.80;99.90;;;;;;5011862;28;20258;-85
2020/12/08 04:50:18;;;;;;;27.75;15.65;;;1.80;99.90;;;;;;5013245;28;20290;-85
2020/12/08 04:52:45;;;;;;;20.85;12.10;;;1.80;99.90;;;;;;5012787;28;20294;-86
2020/12/08 04:55:12;;;;;;;27.73;15.18;;;1.80;99.90;;;;;;5012891;28;20231;-85
2020/12/08 04:57:39;;;;;;;27.05;13.55;;;1.70;99.90;;;;;;5012717;28;20323;-85
2020/12/08 05:00:07;;;;;;;26.38;12.13;;;1.70;99.90;;;;;;5012719;28;20231;-86
2020/12/08 05:02:44;;;;;;;28.35;14.15;;;1.70;99.90;;;;;;5011608;28;20254;-86
2020/12/08 05:05:11;;;;;;;25.65;12.40;;;1.60;99.90;;;;;;5014049;28;20261;-87
2020/12/08 05:07:37;;;;;;;23.88;13.88;;;1.70;99.90;;;;;;5016657;28;20585;-86
2020/12/08 05:10:03;;;;;;;27.88;13.07;;;1.70;99.90;;;;;;5016951;28;20231;-86
2020/12/08 05:12:31;;;;;;;36.42;16.13;;;1.70;99.90;;;;;;5001057;28;20240;-85
2020/12/08 05:14:57;;;;;;;30.42;15.23;;;1.70;99.90;;;;;;4997033;28;20239;-87
2020/12/08 05:17:25;;;;;;;29.30;14.80;;;1.60;99.90;;;;;;4996370;28;20258;-85
2020/12/08 05:20:03;;;;;;;30.02;15.43;;;1.70;99.90;;;;;;4996910;28;20857;-85
2020/12/08 05:22:29;;;;;;;25.15;14.57;;;1.70;99.90;;;;;;4996544;28;20208;-86
2020/12/08 05:24:55;;;;;;;35.35;15.98;;;1.70;99.90;;;;;;4996767;28;20208;-85
2020/12/08 05:27:22;;;;;;;27.95;15.00;;;1.70;99.90;;;;;;4996660;28;20290;-86
2020/12/08 05:29:49;;;;;;;26.23;14.98;;;1.70;99.90;;;;;;4996841;28;20232;-86
2020/12/08 05:32:29;;;;;;;27.00;14.80;;;1.80;99.90;;;;;;4995413;28;20299;-87
2020/12/08 05:34:56;;;;;;;26.85;15.00;;;1.80;99.90;;;;;;5006709;28;20199;-88
2020/12/08 05:37:23;;;;;;;26.00;15.45;;;1.90;99.90;;;;;;5015959;28;20285;-88
2020/12/08 05:39:50;;;;;;;28.25;15.30;;;2.00;99.90;;;;;;5016333;28;20664;-87
2020/12/08 05:42:18;;;;;;;29.52;15.57;;;2.00;99.90;;;;;;5016101;28;20294;-87
2020/12/08 05:44:50;;;;;;;39.55;18.92;;;2.00;99.90;;;;;;5016415;28;20211;-86
2020/12/08 05:47:21;;;;;;;24.65;16.00;;;2.10;99.90;;;;;;5014992;28;20254;-86
2020/12/08 05:49:59;;;;;;;32.42;15.43;;;2.10;99.90;;;;;;5015792;28;20715;-87
2020/12/08 05:52:29;;;;;;;32.28;15.27;;;2.10;99.90;;;;;;5015795;28;20555;-86
2020/12/08 05:55:13;;;;;;;31.92;13.90;;;2.20;99.90;;;;;;5015700;28;20211;-84
2020/12/08 05:57:39;;;;;;;31.33;16.88;;;2.20;99.90;;;;;;5012612;28;20295;-86
2020/12/08 06:00:19;;;;;;;31.60;16.70;;;2.30;99.90;;;;;;5015756;28;20318;-85
2020/12/08 06:02:45;;;;;;;32.53;15.80;;;2.30;99.90;;;;;;5014749;28;20730;-84
2020/12/08 06:05:12;;;;;;;24.90;13.95;;;2.40;99.90;;;;;;5015838;28;20211;-85
2020/12/08 06:07:38;;;;;;;26.67;14.02;;;2.40;99.90;;;;;;5029757;28;20188;-84
2020/12/08 06:10:06;;;;;;;24.33;12.70;;;2.30;99.90;;;;;;5038093;28;20203;-86
2020/12/08 06:12:33;;;;;;;24.88;14.95;;;2.30;99.90;;;;;;5037371;28;20195;-86
2020/12/08 06:15:00;;;;;;;29.55;16.10;;;2.30;99.90;;;;;;5030748;28;20234;-85
2020/12/08 06:17:27;;;;;;;28.25;14.80;;;2.30;99.90;;;;;;5017405;28;20286;-86
2020/12/08 06:19:54;;;;;;;25.40;15.95;;;2.30;99.90;;;;;;5017939;28;20691;-86
2020/12/08 06:22:20;;;;;;;24.65;12.45;;;2.20;99.90;;;;;;5016689;28;20204;-87
2020/12/08 06:24:54;;;;;;;28.25;16.65;;;2.30;99.90;;;;;;5020121;28;20243;-86
2020/12/08 06:27:23;;;;;;;23.38;13.55;;;2.30;99.90;;;;;;5019524;28;20664;-86
2020/12/08 06:29:54;;;;;;;23.90;14.45;;;2.30;99.90;;;;;;5019371;28;20246;-85
2020/12/08 06:32:25;;;;;;;26.92;16.00;;;2.30;99.90;;;;;;5019366;28;20632;-86
2020/12/08 06:35:07;;;;;;;25.98;15.23;;;2.20;99.90;;;;;;5027313;28;20208;-85
2020/12/08 06:37:35;;;;;;;31.63;15.50;;;2.20;99.90;;;;;;5037920;28;20204;-87
2020/12/08 06:40:09;;;;;;;30.58;13.85;;;2.30;99.90;;;;;;5038125;28;20231;-86
2020/12/08 06:42:36;;;;;;;18.77;12.02;;;2.20;99.90;;;;;;5018330;28;20209;-86
2020/12/08 06:45:07;;;;;;;27.35;14.18;;;2.20;99.90;;;;;;5020019;28;20231;-88
2020/12/08 06:47:34;;;;;;;24.13;11.75;;;2.20;99.90;;;;;;5016914;28;20690;-85
2020/12/08 06:50:00;;;;;;;23.80;13.20;;;2.10;99.90;;;;;;5015483;28;20235;-83
2020/12/08 06:52:28;;;;;;;25.35;12.98;;;2.10;99.90;;;;;;5014963;28;20207;-85
2020/12/08 06:54:59;;;;;;;25.13;14.48;;;2.00;99.90;;;;;;5015353;28;20299;-85
2020/12/08 06:57:25;;;;;;;26.27;14.57;;;2.00;99.90;;;;;;5015984;28;20211;-84
2020/12/08 07:00:00;;;;;;;25.95;13.00;;;1.90;99.90;;;;;;5014768;28;20770;-84
2020/12/08 07:02:28;;;;;;;21.30;13.70;;;1.90;99.90;;;;;;5013684;28;20244;-84
2020/12/08 07:04:55;;;;;;;22.20;11.80;;;1.80;99.90;;;;;;5014424;28;20618;-83
2020/12/08 07:07:21;;;;;;;25.83;14.30;;;1.80;99.90;;;;;;5014288;28;20673;-83
2020/12/08 07:09:50;;;;;;;19.23;12.85;;;1.70;99.90;;;;;;5014525;28;20231;-83
2020/12/08 07:12:16;;;;;;;25.17;13.70;;;1.60;99.90;;;;;;5014338;28;20258;-84
2020/12/08 07:14:43;;;;;;;26.83;14.25;;;1.60;99.90;;;;;;5014473;28;20633;-84
2020/12/08 07:17:10;;;;;;;25.67;14.90;;;1.60;99.90;;;;;;5013185;28;20298;-83
2020/12/08 07:19:36;;;;;;;26.90;14.40;;;1.50;99.90;;;;;;5013952;28;20286;-83
2020/12/08 07:22:08;;;;;;;28.25;13.90;;;1.50;99.90;;;;;;5013791;28;20203;-83
2020/12/08 07:24:42;;;;;;;30.05;15.25;;;1.50;99.90;;;;;;5014358;28;20242;-83
2020/12/08 07:27:11;;;;;;;27.05;13.25;;;1.50;99.90;;;;;;5014118;28;20277;-84
2020/12/08 07:29:39;;;;;;;26.38;14.10;;;1.50;99.90;;;;;;5013609;28;20243;-84
2020/12/08 07:32:06;;;;;;;30.75;13.45;;;1.60;99.90;;;;;;5012717;28;20208;-83
2020/12/08 07:34:33;;;;;;;27.05;13.95;;;1.60;99.90;;;;;;5014018;28;20636;-84
2020/12/08 07:36:59;;;;;;;29.88;16.08;;;1.60;99.90;;;;;;5013656;28;20631;-82
2020/12/08 07:39:29;;;;;;;28.40;13.20;;;1.70;99.90;;;;;;5013735;28;20262;-83
2020/12/08 07:42:03;;;;;;;25.45;16.08;;;1.70;99.90;;;;;;5013714;28;20203;-83
2020/12/08 07:44:30;;;;;;;22.73;12.38;;;1.80;99.90;;;;;;5013609;28;20593;-82
2020/12/08 07:46:56;;;;;;;33.40;16.30;;;1.80;99.90;;;;;;5012161;28;20207;-83
2020/12/08 07:49:23;;;;;;;26.48;15.45;;;1.80;99.90;;;;;;5013759;28;20207;-84
2020/12/08 07:51:50;;;;;;;30.33;16.35;;;1.90;99.90;;;;;;5013212;28;20238;-83
2020/12/08 07:54:18;;;;;;;25.75;13.93;;;1.90;99.90;;;;;;5013225;28;20250;-83
2020/12/08 07:56:44;;;;;;;30.92;16.20;;;2.00;99.90;;;;;;5013386;28;20243;-83
2020/12/08 07:59:10;;;;;;;27.50;14.75;;;2.00;99.90;;;;;;5013157;28;20315;-82
2020/12/08 08:01:43;;;;;;;30.27;15.32;;;2.10;99.90;;;;;;5012122;28;20267;-83
2020/12/08 08:04:09;;;;;;;28.67;15.93;;;2.20;99.90;;;;;;5013584;28;20227;-83
2020/12/08 08:06:36;;;;;;;33.17;18.73;;;2.10;99.90;;;;;;5013147;28;20235;-82
2020/12/08 08:09:06;;;;;;;22.38;13.25;;;2.20;99.90;;;;;;5013004;28;20309;-82
2020/12/08 08:11:33;;;;;;;26.52;13.60;;;2.10;99.90;;;;;;5013024;28;20227;-85
2020/12/08 08:14:00;;;;;;;25.65;15.13;;;2.10;99.90;;;;;;5013401;28;20208;-87
2020/12/08 08:16:26;;;;;;;30.05;14.70;;;2.10;99.90;;;;;;5011968;28;20706;-85
2020/12/08 08:18:54;;;;;;;24.88;14.70;;;2.10;99.90;;;;;;5013447;28;20207;-87
2020/12/08 08:21:20;;;;;;;28.30;15.23;;;2.10;99.90;;;;;;5013474;28;20218;-84
2020/12/08 08:23:47;;;;;;;22.13;11.93;;;2.50;99.90;;;;;;5012855;28;20277;-87
2020/12/08 08:26:15;;;;;;;29.00;15.80;;;2.60;99.90;;;;;;5013056;28;20214;-86
2020/12/08 08:28:41;;;;;;;27.05;15.40;;;2.60;99.90;;;;;;5013152;28;20212;-89
2020/12/08 08:31:08;;;;;;;29.33;13.80;;;2.70;99.90;;;;;;5011799;28;20257;-83
2020/12/08 08:33:35;;;;;;;27.52;15.93;;;2.80;99.90;;;;;;5013242;28;20242;-82
2020/12/08 08:36:02;;;;;;;25.63;16.00;;;3.00;99.90;;;;;;5013007;28;20636;-84
2020/12/08 08:38:28;;;;;;;25.77;15.30;;;2.90;99.90;;;;;;5012821;28;20513;-83
2020/12/08 08:40:56;;;;;;;28.67;14.77;;;2.90;99.90;;;;;;5006096;28;20310;-88
2020/12/08 08:43:30;;;;;;;29.35;15.50;;;3.00;99.90;;;;;;4997197;28;20667;-82
2020/12/08 08:45:57;;;;;;;27.13;12.38;;;3.20;99.90;;;;;;4996615;28;20222;-89
2020/12/08 08:48:24;;;;;;;27.65;15.15;;;3.10;99.90;;;;;;4997115;28;20204;-84
2020/12/08 08:50:51;;;;;;;28.98;14.25;;;3.00;99.90;;;;;;4997045;28;20300;-85
2020/12/08 08:53:18;;;;;;;23.65;14.63;;;3.00;99.90;;;;;;4996449;28;20208;-85
2020/12/08 08:55:45;;;;;;;25.30;13.88;;;3.00;99.90;;;;;;4997113;28;20307;-85
2020/12/08 08:58:11;;;;;;;24.83;13.25;;;3.20;99.90;;;;;;4996989;28;20362;-84
2020/12/08 09:00:38;;;;;;;24.33;12.68;;;3.30;99.90;;;;;;4996939;28;20330;-82
2020/12/08 09:03:06;;;;;;;20.77;12.27;;;3.30;99.90;;;;;;4995414;28;20400;-84
2020/12/08 09:05:32;;;;;;;23.65;15.57;;;3.30;99.90;;;;;;5002876;28;20200;-83
2020/12/08 09:07:59;;;;;;;25.77;14.45;;;3.30;99.90;;;;;;5016016;28;20207;-83
2020/12/08 09:10:26;;;;;;;21.55;12.90;;;3.40;99.90;;;;;;5016108;28;20298;-84
2020/12/08 09:12:53;;;;;;;23.85;13.55;;;3.40;99.90;;;;;;5016372;28;20231;-84
2020/12/08 09:15:19;;;;;;;29.85;13.27;;;3.50;99.90;;;;;;5016259;28;20204;-84
2020/12/08 09:17:46;;;;;;;20.88;13.05;;;3.50;99.90;;;;;;5014778;28;20259;-82
2020/12/08 09:20:12;;;;;;;21.45;12.20;;;3.50;99.90;;;;;;5015972;28;20234;-85
2020/12/08 09:22:38;;;;;;;25.70;13.45;;;3.60;99.90;;;;;;5015958;28;20621;-84
2020/12/08 09:25:05;;;;;;;21.05;11.48;;;3.60;99.90;;;;;;5016293;28;20235;-85
2020/12/08 09:27:32;;;;;;;24.45;13.65;;;3.70;99.90;;;;;;5016141;28;20727;-85
2020/12/08 09:29:58;;;;;;;22.90;12.48;;;3.70;99.90;;;;;;5016237;28;20302;-85
2020/12/08 09:32:26;;;;;;;18.67;14.27;;;3.80;99.90;;;;;;5014899;28;20235;-87
2020/12/08 09:34:53;;;;;;;20.10;12.32;;;3.80;99.90;;;;;;5016068;28;20570;-86
2020/12/08 09:37:20;;;;;;;19.65;11.70;;;3.70;99.90;;;;;;5015778;28;20211;-85
2020/12/08 09:39:46;;;;;;;18.63;11.23;;;3.70;99.90;;;;;;5015938;28;20833;-85
2020/12/08 09:42:12;;;;;;;27.98;13.38;;;3.80;99.90;;;;;;5015913;28;20295;-85
2020/12/08 09:44:42;;;;;;;20.73;11.68;;;3.80;99.90;;;;;;5015801;28;20316;-85
2020/12/08 09:47:09;;;;;;;23.50;12.13;;;3.70;99.90;;;;;;5014562;28;20203;-85
2020/12/08 09:49:36;;;;;;;19.48;12.75;;;3.70;99.90;;;;;;5015817;28;20203;-86
2020/12/08 09:52:02;;;;;;;22.42;13.25;;;3.90;99.90;;;;;;5014927;28;20655;-86
2020/12/08 09:54:29;;;;;;;21.42;11.45;;;3.90;99.90;;;;;;5015897;28;20235;-86
2020/12/08 09:56:55;;;;;;;17.65;12.02;;;3.90;99.90;;;;;;5011495;28;20626;-87
2020/12/08 09:59:22;;;;;;;19.85;12.68;;;4.00;99.90;;;;;;4992094;28;20240;-86
2020/12/08 10:01:49;;;;;;;20.48;10.57;;;4.00;99.90;;;;;;4994919;28;20208;-87
2020/12/08 10:04:15;;;;;;;20.13;10.95;;;4.00;99.90;;;;;;5007141;28;20258;-85
2020/12/08 10:06:42;;;;;;;20.92;12.63;;;4.10;99.90;;;;;;5015206;28;20239;-85
2020/12/08 10:09:08;;;;;;;16.60;11.73;;;4.20;99.90;;;;;;5015151;28;20212;-84
2020/12/08 10:11:36;;;;;;;17.88;11.18;;;4.20;99.90;;;;;;5014798;28;20291;-84
2020/12/08 10:14:02;;;;;;;25.10;12.40;;;4.20;99.90;;;;;;5015117;28;20574;-86
2020/12/08 10:16:28;;;;;;;18.80;11.00;;;4.20;99.90;;;;;;5013831;28;20239;-86
2020/12/08 10:18:56;;;;;;;21.67;12.00;;;4.30;99.90;;;;;;5014682;28;20277;-87
2020/12/08 10:21:23;;;;;;;22.88;14.35;;;4.30;99.90;;;;;;5014687;28;20982;-86
2020/12/08 10:23:49;;;;;;;18.23;10.52;;;4.30;99.90;;;;;;5017209;28;20240;-89
2020/12/08 10:26:16;;;;;;;18.80;12.15;;;4.40;99.90;;;;;;5015262;28;20250;-89
2020/12/08 10:28:42;;;;;;;19.25;11.35;;;4.40;99.90;;;;;;5014716;28;20292;-86
2020/12/08 10:31:09;;;;;;;22.92;11.73;;;4.40;99.90;;;;;;5013598;28;21073;-87
2020/12/08 10:33:35;;;;;;;18.35;9.50;;;4.50;99.90;;;;;;5014276;28;20290;-86
2020/12/08 10:36:03;;;;;;;20.17;11.38;;;4.50;99.90;;;;;;5014568;28;20311;-85
2020/12/08 10:38:29;;;;;;;18.88;12.27;;;4.60;99.90;;;;;;5013769;28;20208;-83
2020/12/08 10:40:56;;;;;;;21.10;11.30;;;4.60;99.90;;;;;;5021627;28;20255;-87
2020/12/08 10:43:23;;;;;;;16.67;10.80;;;4.60;99.90;;;;;;5018274;28;20682;-83
2020/12/08 10:45:52;;;;;;;19.02;11.70;;;4.70;99.90;;;;;;5016644;28;20447;-87
2020/12/08 10:48:18;;;;;;;19.33;11.73;;;4.70;99.90;;;;;;5014897;28;20606;-89
2020/12/08 10:50:45;;;;;;;16.77;9.95;;;4.80;99.90;;;;;;5014441;28;20227;-85
2020/12/08 10:53:12;;;;;;;15.07;9.88;;;4.80;99.90;;;;;;5014254;28;20250;-85
2020/12/08 10:55:39;;;;;;;18.00;11.52;;;4.90;99.90;;;;;;5014267;28;20204;-86
2020/12/08 10:58:05;;;;;;;16.63;10.57;;;4.90;99.90;;;;;;5013961;28;20381;-86
2020/12/08 11:00:32;;;;;;;21.33;11.00;;;5.10;99.90;;;;;;5013962;28;20271;-86
2020/12/08 11:02:58;;;;;;;17.85;10.98;;;5.10;99.90;;;;;;5012179;28;20238;-84
2020/12/08 11:05:25;;;;;;;18.52;10.50;;;5.00;99.90;;;;;;5012972;28;20200;-86
2020/12/08 11:07:51;;;;;;;17.08;10.43;;;4.90;99.90;;;;;;5014261;28;20239;-86
2020/12/08 11:10:18;;;;;;;15.50;9.75;;;4.80;99.90;;;;;;5013990;28;20242;-87
2020/12/08 11:12:45;;;;;;;19.70;11.40;;;4.80;99.90;;;;;;5015211;28;20227;-86
2020/12/08 11:15:13;;;;;;;18.20;11.18;;;4.70;99.90;;;;;;5014748;28;20287;-87
2020/12/08 11:17:41;;;;;;;15.77;9.10;;;4.70;99.90;;;;;;5014043;28;20253;-89
2020/12/08 11:20:08;;;;;;;18.00;10.95;;;4.70;99.90;;;;;;5030368;28;20266;-86
2020/12/08 11:22:34;;;;;;;20.70;13.45;;;4.70;99.90;;;;;;5036226;28;20200;-87
2020/12/08 11:25:01;;;;;;;19.38;11.77;;;4.70;99.90;;;;;;5026979;28;20218;-85
2020/12/08 11:27:29;;;;;;;15.07;10.60;;;4.60;99.90;;;;;;5025591;28;20286;-86
2020/12/08 11:29:55;;;;;;;21.35;13.02;;;4.60;99.90;;;;;;5032280;28;20207;-86
2020/12/08 11:32:22;;;;;;;22.52;12.98;;;4.50;99.90;;;;;;5032630;28;20204;-85
2020/12/08 11:34:48;;;;;;;14.40;10.35;;;4.50;99.90;;;;;;5028526;28;20215;-87
2020/12/08 11:37:15;;;;;;;22.38;11.52;;;4.50;99.90;;;;;;5015507;28;20204;-87
2020/12/08 11:39:41;;;;;;;18.85;12.10;;;4.50;99.90;;;;;;5016459;28;20235;-87
2020/12/08 11:42:12;;;;;;;21.45;13.00;;;4.50;99.90;;;;;;5014422;28;20645;-85
2020/12/08 11:44:39;;;;;;;21.02;13.30;;;4.50;99.90;;;;;;5014445;28;20684;-87
2020/12/08 11:47:06;;;;;;;18.75;11.15;;;4.60;99.90;;;;;;5014722;28;20694;-86
2020/12/08 11:49:36;;;;;;;19.83;11.68;;;4.60;99.90;;;;;;5013665;28;20291;-86
2020/12/08 11:52:03;;;;;;;17.63;11.07;;;4.70;99.90;;;;;;5013645;28;20663;-87
2020/12/08 11:54:30;;;;;;;21.80;12.60;;;4.90;99.90;;;;;;5013383;28;20307;-87
2020/12/08 11:56:56;;;;;;;18.02;10.68;;;5.00;99.90;;;;;;5013398;28;20684;-87
2020/12/08 11:59:23;;;;;;;21.63;11.68;;;5.20;99.90;;;;;;5013329;28;20263;-85
2020/12/08 12:01:50;;;;;;;18.23;11.38;;;5.30;99.90;;;;;;5012181;28;20690;-87
2020/12/08 12:04:17;;;;;;;16.60;11.80;;;5.40;99.90;;;;;;5013370;28;20231;-82
2020/12/08 12:06:44;;;;;;;19.95;12.90;;;5.60;99.90;;;;;;5011987;28;20204;-84
2020/12/08 12:09:10;;;;;;;15.15;11.25;;;5.80;99.90;;;;;;5013365;28;20613;-86
2020/12/08 12:11:36;;;;;;;17.13;10.38;;;5.80;99.90;;;;;;5012995;28;20242;-86
2020/12/08 12:14:03;;;;;;;19.33;12.60;;;5.90;99.90;;;;;;5013052;28;20287;-85
2020/12/08 12:16:30;;;;;;;17.42;11.85;;;6.00;99.90;;;;;;5014948;28;20226;-85
2020/12/08 12:18:57;;;;;;;16.63;10.95;;;6.00;99.90;;;;;;5020417;28;20679;-84
2020/12/08 12:21:24;;;;;;;15.07;10.20;;;5.90;99.90;;;;;;5013022;28;20680;-83
2020/12/08 12:23:50;;;;;;;22.27;11.82;;;5.90;99.90;;;;;;5012909;28;20216;-86
2020/12/08 12:26:16;;;;;;;19.55;10.85;;;5.70;99.90;;;;;;5013096;28;20604;-86
2020/12/08 12:28:43;;;;;;;16.52;10.20;;;5.60;99.90;;;;;;5012896;28;20283;-83
2020/12/08 12:31:09;;;;;;;16.52;10.68;;;5.50;99.90;;;;;;5011562;28;20243;-82
2020/12/08 12:33:37;;;;;;;24.55;12.48;;;5.50;99.90;;;;;;5011834;28;20290;-82
2020/12/08 12:36:04;;;;;;;19.45;11.15;;;5.50;99.90;;;;;;5012304;28;20632;-81
2020/12/08 12:38:31;;;;;;;19.88;11.68;;;5.40;99.90;;;;;;5012742;28;20319;-84